sensor_id;sensor_type;location;lat;lon;timestamp;temperature;humidity
59148;DHT22;44930;52.878;6.168;2024-03-23T00:54:08;6.30;99.90
59148;DHT22;44930;52.878;6.168;2024-03-23T00:56:34;6.30;99.90
59148;DHT22;44930;52.878;6.168;2024-03-23T00:58:59;6.30;99.90
59148;DHT22;44930;52.878;6.168;2024-03-23T01:01:25;6.20;99.90
59148;DHT22;44930;52.878;6.168;2024-03-23T01:06:16;6.10;99.90
59148;DHT22;44930;52.878;6.168;2024-03-23T01:08:42;6.00;99.90
59148;DHT22;44930;52.878;6.168;2024-03-23T01:11:07;6.00;99.90
59148;DHT22;44930;52.878;6.168;2024-03-23T01:13:33;5.90;99.90
59148;DHT22;44930;52.878;6.168;2024-03-23T01:15:59;5.90;99.90
59148;DHT22;44930;52.878;6.168;2024-03-23T01:18:24;5.90;99.90
59148;DHT22;44930;52.878;6.168;2024-03-23T01:20:52;6.00;99.90
59148;DHT22;44930;52.878;6.168;2024-03-23T01:23:17;5.90;99.90
59148;DHT22;44930;52.878;6.168;2024-03-23T01:25:43;5.90;99.90
59148;DHT22;44930;52.878;6.168;2024-03-23T01:28:08;5.90;99.90
59148;DHT22;44930;52.878;6.168;2024-03-23T01:30:35;5.90;99.90
59148;DHT22;44930;52.878;6.168;2024-03-23T01:33:01;5.90;99.90
59148;DHT22;44930;52.878;6.168;2024-03-23T01:37:54;5.80;99.90
59148;DHT22;44930;52.878;6.168;2024-03-23T01:40:19;5.70;99.90
59148;DHT22;44930;52.878;6.168;2024-03-23T01:42:56;5.60;99.90
59148;DHT22;44930;52.878;6.168;2024-03-23T01:45:21;5.70;99.90
59148;DHT22;44930;52.878;6.168;2024-03-23T01:47:47;5.60;99.90
59148;DHT22;44930;52.878;6.168;2024-03-23T01:50:14;5.50;99.90
59148;DHT22;44930;52.878;6.168;2024-03-23T01:52:40;5.50;99.90
59148;DHT22;44930;52.878;6.168;2024-03-23T01:55:05;5.50;99.90
59148;DHT22;44930;52.878;6.168;2024-03-23T01:57:31;5.40;99.90
59148;DHT22;44930;52.878;6.168;2024-03-23T01:59:57;5.40;99.90
59148;DHT22;44930;52.878;6.168;2024-03-23T02:02:22;5.30;99.90
59148;DHT22;44930;52.878;6.168;2024-03-23T02:07:14;5.30;99.90
59148;DHT22;44930;52.878;6.168;2024-03-23T02:09:39;5.20;99.90
59148;DHT22;44930;52.878;6.168;2024-03-23T02:12:05;5.30;99.90
59148;DHT22;44930;52.878;6.168;2024-03-23T02:14:31;5.50;99.90
59148;DHT22;44930;52.878;6.168;2024-03-23T02:16:57;5.10;99.90
59148;DHT22;44930;52.878;6.168;2024-03-23T02:19:23;5.30;99.90
59148;DHT22;44930;52.878;6.168;2024-03-23T02:21:49;5.40;99.90
59148;DHT22;44930;52.878;6.168;2024-03-23T02:24:15;5.40;99.90
59148;DHT22;44930;52.878;6.168;2024-03-23T02:26:40;5.30;99.90
59148;DHT22;44930;52.878;6.168;2024-03-23T02:29:06;5.20;99.90
59148;DHT22;44930;52.878;6.168;2024-03-23T02:31:32;5.10;99.90
59148;DHT22;44930;52.878;6.168;2024-03-23T02:33:57;5.30;99.90
59148;DHT22;44930;52.878;6.168;2024-03-23T02:36:23;5.30;99.90
59148;DHT22;44930;52.878;6.168;2024-03-23T02:38:49;5.30;99.90
59148;DHT22;44930;52.878;6.168;2024-03-23T02:41:14;5.20;99.90
59148;DHT22;44930;52.878;6.168;2024-03-23T02:43:41;5.20;99.90
59148;DHT22;44930;52.878;6.168;2024-03-23T02:48:32;5.20;99.90
59148;DHT22;44930;52.878;6.168;2024-03-23T02:50:58;5.10;99.90
59148;DHT22;44930;52.878;6.168;2024-03-23T02:55:50;5.10;99.90
59148;DHT22;44930;52.878;6.168;2024-03-23T02:58:15;5.10;99.90
59148;DHT22;44930;52.878;6.168;2024-03-23T03:00:41;5.10;99.90
59148;DHT22;44930;52.878;6.168;2024-03-23T03:03:07;5.10;99.90
59148;DHT22;44930;52.878;6.168;2024-03-23T03:05:32;5.10;99.90
59148;DHT22;44930;52.878;6.168;2024-03-23T03:07:58;5.20;99.90
59148;DHT22;44930;52.878;6.168;2024-03-23T03:10:23;5.30;99.90
59148;DHT22;44930;52.878;6.168;2024-03-23T03:12:50;5.30;99.90
59148;DHT22;44930;52.878;6.168;2024-03-23T03:17:42;5.20;99.90
59148;DHT22;44930;52.878;6.168;2024-03-23T03:20:08;5.30;99.90
59148;DHT22;44930;52.878;6.168;2024-03-23T03:22:38;5.20;99.90
59148;DHT22;44930;52.878;6.168;2024-03-23T03:25:05;5.10;99.90
59148;DHT22;44930;52.878;6.168;2024-03-23T03:27:32;5.10;99.90
59148;DHT22;44930;52.878;6.168;2024-03-23T03:32:26;5.00;99.90
59148;DHT22;44930;52.878;6.168;2024-03-23T03:34:51;5.10;99.90
59148;DHT22;44930;52.878;6.168;2024-03-23T03:37:17;4.80;99.90
59148;DHT22;44930;52.878;6.168;2024-03-23T03:39:43;5.10;99.90
59148;DHT22;44930;52.878;6.168;2024-03-23T03:42:08;5.10;99.90
59148;DHT22;44930;52.878;6.168;2024-03-23T03:44:34;5.20;99.90
59148;DHT22;44930;52.878;6.168;2024-03-23T03:46:59;5.10;99.90
59148;DHT22;44930;52.878;6.168;2024-03-23T03:49:25;5.10;99.90
59148;DHT22;44930;52.878;6.168;2024-03-23T03:51:51;5.00;99.90
59148;DHT22;44930;52.878;6.168;2024-03-23T03:54:16;5.20;99.90
59148;DHT22;44930;52.878;6.168;2024-03-23T03:56:42;5.10;99.90
59148;DHT22;44930;52.878;6.168;2024-03-23T04:01:33;5.10;99.90
59148;DHT22;44930;52.878;6.168;2024-03-23T04:03:59;5.00;99.90
59148;DHT22;44930;52.878;6.168;2024-03-23T04:06:24;5.10;99.90
59148;DHT22;44930;52.878;6.168;2024-03-23T04:08:50;5.00;99.90
59148;DHT22;44930;52.878;6.168;2024-03-23T04:11:15;4.90;99.90
59148;DHT22;44930;52.878;6.168;2024-03-23T04:13:41;4.90;99.90
59148;DHT22;44930;52.878;6.168;2024-03-23T04:16:07;5.00;99.90
59148;DHT22;44930;52.878;6.168;2024-03-23T04:18:34;5.00;99.90
59148;DHT22;44930;52.878;6.168;2024-03-23T04:21:00;4.90;99.90
59148;DHT22;44930;52.878;6.168;2024-03-23T04:23:25;4.90;99.90
59148;DHT22;44930;52.878;6.168;2024-03-23T04:25:51;4.80;99.90
59148;DHT22;44930;52.878;6.168;2024-03-23T04:28:18;4.80;99.90
59148;DHT22;44930;52.878;6.168;2024-03-23T04:30:44;4.80;99.90
59148;DHT22;44930;52.878;6.168;2024-03-23T04:33:10;4.70;99.90
59148;DHT22;44930;52.878;6.168;2024-03-23T04:35:36;4.80;99.90
59148;DHT22;44930;52.878;6.168;2024-03-23T04:38:02;4.90;99.90
59148;DHT22;44930;52.878;6.168;2024-03-23T04:40:27;4.80;99.90
59148;DHT22;44930;52.878;6.168;2024-03-23T04:42:53;4.80;99.90
59148;DHT22;44930;52.878;6.168;2024-03-23T04:45:18;4.90;99.90
59148;DHT22;44930;52.878;6.168;2024-03-23T04:47:44;5.40;99.90
59148;DHT22;44930;52.878;6.168;2024-03-23T04:50:10;4.80;99.90
59148;DHT22;44930;52.878;6.168;2024-03-23T04:52:38;4.80;99.90
59148;DHT22;44930;52.878;6.168;2024-03-23T04:55:04;4.70;99.90
59148;DHT22;44930;52.878;6.168;2024-03-23T04:57:30;4.80;99.90
59148;DHT22;44930;52.878;6.168;2024-03-23T04:59:56;4.80;99.90
59148;DHT22;44930;52.878;6.168;2024-03-23T05:02:21;4.80;99.90
59148;DHT22;44930;52.878;6.168;2024-03-23T05:04:47;4.70;99.90
59148;DHT22;44930;52.878;6.168;2024-03-23T05:09:38;4.70;99.90
59148;DHT22;44930;52.878;6.168;2024-03-23T05:12:04;4.60;99.90
59148;DHT22;44930;52.878;6.168;2024-03-23T05:14:30;4.80;99.90
59148;DHT22;44930;52.878;6.168;2024-03-23T05:16:56;4.60;99.90
59148;DHT22;44930;52.878;6.168;2024-03-23T05:19:22;4.70;99.90
59148;DHT22;44930;52.878;6.168;2024-03-23T05:21:48;4.70;99.90
59148;DHT22;44930;52.878;6.168;2024-03-23T05:24:13;4.50;99.90
59148;DHT22;44930;52.878;6.168;2024-03-23T05:26:39;4.80;99.90
59148;DHT22;44930;52.878;6.168;2024-03-23T05:31:32;4.80;99.90
59148;DHT22;44930;52.878;6.168;2024-03-23T05:33:58;4.90;99.90
59148;DHT22;44930;52.878;6.168;2024-03-23T05:36:23;5.00;99.90
59148;DHT22;44930;52.878;6.168;2024-03-23T05:38:50;5.00;99.90
59148;DHT22;44930;52.878;6.168;2024-03-23T05:41:15;5.00;99.90
59148;DHT22;44930;52.878;6.168;2024-03-23T05:43:41;5.00;99.90
59148;DHT22;44930;52.878;6.168;2024-03-23T05:46:07;5.10;99.90
59148;DHT22;44930;52.878;6.168;2024-03-23T05:48:35;4.80;99.90
59148;DHT22;44930;52.878;6.168;2024-03-23T05:56:02;5.20;99.90
59148;DHT22;44930;52.878;6.168;2024-03-23T05:58:32;5.50;99.90
59148;DHT22;44930;52.878;6.168;2024-03-23T06:00:58;5.70;99.90
59148;DHT22;44930;52.878;6.168;2024-03-23T06:03:28;5.80;99.90
59148;DHT22;44930;52.878;6.168;2024-03-23T06:05:53;5.70;99.90
59148;DHT22;44930;52.878;6.168;2024-03-23T06:10:46;5.90;99.90
59148;DHT22;44930;52.878;6.168;2024-03-23T06:13:12;5.70;99.90
59148;DHT22;44930;52.878;6.168;2024-03-23T06:15:38;5.80;99.90
59148;DHT22;44930;52.878;6.168;2024-03-23T06:20:30;5.30;99.90
59148;DHT22;44930;52.878;6.168;2024-03-23T06:22:56;5.60;99.90
59148;DHT22;44930;52.878;6.168;2024-03-23T06:25:22;5.60;99.90
59148;DHT22;44930;52.878;6.168;2024-03-23T06:27:47;5.50;99.90
59148;DHT22;44930;52.878;6.168;2024-03-23T06:30:13;5.50;99.90
59148;DHT22;44930;52.878;6.168;2024-03-23T06:32:39;5.60;99.90
59148;DHT22;44930;52.878;6.168;2024-03-23T06:37:35;5.70;99.90
59148;DHT22;44930;52.878;6.168;2024-03-23T06:40:01;5.50;99.90
59148;DHT22;44930;52.878;6.168;2024-03-23T06:42:26;5.50;99.90
59148;DHT22;44930;52.878;6.168;2024-03-23T06:44:52;5.50;99.90
59148;DHT22;44930;52.878;6.168;2024-03-23T06:47:17;5.60;99.90
59148;DHT22;44930;52.878;6.168;2024-03-23T06:49:43;5.60;99.90
59148;DHT22;44930;52.878;6.168;2024-03-23T06:52:08;5.50;99.90
59148;DHT22;44930;52.878;6.168;2024-03-23T06:54:34;5.70;99.90
59148;DHT22;44930;52.878;6.168;2024-03-23T06:57:00;5.80;99.90
59148;DHT22;44930;52.878;6.168;2024-03-23T06:59:25;5.80;99.90
59148;DHT22;44930;52.878;6.168;2024-03-23T07:01:51;5.90;99.90
59148;DHT22;44930;52.878;6.168;2024-03-23T07:04:16;5.80;99.90
59148;DHT22;44930;52.878;6.168;2024-03-23T07:06:43;5.70;99.90
59148;DHT22;44930;52.878;6.168;2024-03-23T07:09:09;5.70;99.90
59148;DHT22;44930;52.878;6.168;2024-03-23T07:11:35;5.70;99.90
59148;DHT22;44930;52.878;6.168;2024-03-23T07:14:01;5.70;99.90
59148;DHT22;44930;52.878;6.168;2024-03-23T07:16:29;5.60;99.90
59148;DHT22;44930;52.878;6.168;2024-03-23T07:18:55;6.00;99.90
59148;DHT22;44930;52.878;6.168;2024-03-23T07:21:21;5.90;99.90
59148;DHT22;44930;52.878;6.168;2024-03-23T07:23:47;6.40;99.90
59148;DHT22;44930;52.878;6.168;2024-03-23T07:26:13;6.00;99.90
59148;DHT22;44930;52.878;6.168;2024-03-23T07:28:38;5.90;99.90
59148;DHT22;44930;52.878;6.168;2024-03-23T07:31:10;5.80;99.90
59148;DHT22;44930;52.878;6.168;2024-03-23T07:33:41;5.60;99.90
59148;DHT22;44930;52.878;6.168;2024-03-23T07:36:07;5.80;99.90
59148;DHT22;44930;52.878;6.168;2024-03-23T07:38:33;5.70;99.90
59148;DHT22;44930;52.878;6.168;2024-03-23T07:43:31;5.40;99.90
59148;DHT22;44930;52.878;6.168;2024-03-23T07:45:57;5.30;99.90
59148;DHT22;44930;52.878;6.168;2024-03-23T07:48:22;5.30;99.90
59148;DHT22;44930;52.878;6.168;2024-03-23T07:51:09;5.10;99.90
59148;DHT22;44930;52.878;6.168;2024-03-23T07:56:06;5.50;99.90
59148;DHT22;44930;52.878;6.168;2024-03-23T07:58:32;5.30;99.90
59148;DHT22;44930;52.878;6.168;2024-03-23T08:01:04;5.50;99.90
59148;DHT22;44930;52.878;6.168;2024-03-23T08:03:30;5.40;99.90
59148;DHT22;44930;52.878;6.168;2024-03-23T08:05:56;5.30;99.90
59148;DHT22;44930;52.878;6.168;2024-03-23T08:10:51;5.50;99.90
59148;DHT22;44930;52.878;6.168;2024-03-23T08:13:17;5.50;99.90
59148;DHT22;44930;52.878;6.168;2024-03-23T08:15:42;5.70;99.90
59148;DHT22;44930;52.878;6.168;2024-03-23T08:18:09;6.00;99.90
59148;DHT22;44930;52.878;6.168;2024-03-23T08:20:34;6.20;99.90
59148;DHT22;44930;52.878;6.168;2024-03-23T08:23:00;6.40;99.90
59148;DHT22;44930;52.878;6.168;2024-03-23T08:25:26;6.60;99.90
59148;DHT22;44930;52.878;6.168;2024-03-23T08:27:52;6.60;99.90
59148;DHT22;44930;52.878;6.168;2024-03-23T08:32:44;7.10;99.90
59148;DHT22;44930;52.878;6.168;2024-03-23T08:35:09;7.30;99.90
59148;DHT22;44930;52.878;6.168;2024-03-23T08:37:35;7.20;99.90
59148;DHT22;44930;52.878;6.168;2024-03-23T08:40:01;7.30;99.90
59148;DHT22;44930;52.878;6.168;2024-03-23T08:42:26;6.80;99.90
59148;DHT22;44930;52.878;6.168;2024-03-23T08:44:52;7.10;99.90
59148;DHT22;44930;52.878;6.168;2024-03-23T08:47:18;7.10;99.90
59148;DHT22;44930;52.878;6.168;2024-03-23T08:49:44;7.10;99.90
59148;DHT22;44930;52.878;6.168;2024-03-23T08:52:10;7.10;99.90
59148;DHT22;44930;52.878;6.168;2024-03-23T08:54:35;7.10;99.90
59148;DHT22;44930;52.878;6.168;2024-03-23T08:57:01;7.00;99.90
59148;DHT22;44930;52.878;6.168;2024-03-23T08:59:27;6.90;99.90
59148;DHT22;44930;52.878;6.168;2024-03-23T09:01:53;7.30;99.90
59148;DHT22;44930;52.878;6.168;2024-03-23T09:04:19;7.40;99.90
59148;DHT22;44930;52.878;6.168;2024-03-23T09:06:44;7.70;99.90
59148;DHT22;44930;52.878;6.168;2024-03-23T09:09:10;8.40;99.90
59148;DHT22;44930;52.878;6.168;2024-03-23T09:11:36;8.20;99.90
59148;DHT22;44930;52.878;6.168;2024-03-23T09:14:03;8.40;99.90
59148;DHT22;44930;52.878;6.168;2024-03-23T09:16:29;8.20;99.90
59148;DHT22;44930;52.878;6.168;2024-03-23T09:18:54;7.70;99.90
59148;DHT22;44930;52.878;6.168;2024-03-23T09:21:20;7.10;99.90
59148;DHT22;44930;52.878;6.168;2024-03-23T09:26:12;6.10;99.90
59148;DHT22;44930;52.878;6.168;2024-03-23T09:28:38;5.90;99.90
59148;DHT22;44930;52.878;6.168;2024-03-23T09:31:08;6.00;99.90
59148;DHT22;44930;52.878;6.168;2024-03-23T09:33:35;6.00;99.90
59148;DHT22;44930;52.878;6.168;2024-03-23T09:36:04;6.00;99.90
59148;DHT22;44930;52.878;6.168;2024-03-23T09:40:57;5.90;99.90
59148;DHT22;44930;52.878;6.168;2024-03-23T09:43:23;5.90;99.90
59148;DHT22;44930;52.878;6.168;2024-03-23T09:45:49;6.00;99.90
59148;DHT22;44930;52.878;6.168;2024-03-23T09:50:43;6.20;99.90
59148;DHT22;44930;52.878;6.168;2024-03-23T09:53:17;6.30;99.90
59148;DHT22;44930;52.878;6.168;2024-03-23T09:55:44;5.60;99.90
59148;DHT22;44930;52.878;6.168;2024-03-23T09:58:14;5.70;99.90
59148;DHT22;44930;52.878;6.168;2024-03-23T10:00:40;5.50;99.90
59148;DHT22;44930;52.878;6.168;2024-03-23T10:03:06;5.40;99.90
59148;DHT22;44930;52.878;6.168;2024-03-23T10:05:32;5.50;99.90
59148;DHT22;44930;52.878;6.168;2024-03-23T10:08:18;5.70;99.90
59148;DHT22;44930;52.878;6.168;2024-03-23T10:10:45;6.10;99.90
59148;DHT22;44930;52.878;6.168;2024-03-23T10:13:11;6.50;99.90
59148;DHT22;44930;52.878;6.168;2024-03-23T10:15:57;6.80;99.90
59148;DHT22;44930;52.878;6.168;2024-03-23T10:18:23;7.10;99.90
59148;DHT22;44930;52.878;6.168;2024-03-23T10:23:49;7.70;99.90
59148;DHT22;44930;52.878;6.168;2024-03-23T10:26:24;8.30;99.90
59148;DHT22;44930;52.878;6.168;2024-03-23T10:29:00;8.10;99.90
59148;DHT22;44930;52.878;6.168;2024-03-23T10:31:33;7.80;99.90
59148;DHT22;44930;52.878;6.168;2024-03-23T10:34:02;7.40;99.90
59148;DHT22;44930;52.878;6.168;2024-03-23T10:36:30;6.90;99.90
59148;DHT22;44930;52.878;6.168;2024-03-23T10:38:56;6.70;99.90
59148;DHT22;44930;52.878;6.168;2024-03-23T10:43:58;6.40;99.90
59148;DHT22;44930;52.878;6.168;2024-03-23T10:46:24;6.30;99.90
59148;DHT22;44930;52.878;6.168;2024-03-23T10:48:50;6.30;99.90
59148;DHT22;44930;52.878;6.168;2024-03-23T10:51:16;6.40;99.90
59148;DHT22;44930;52.878;6.168;2024-03-23T10:53:41;6.70;99.90
59148;DHT22;44930;52.878;6.168;2024-03-23T10:56:08;6.70;99.90
59148;DHT22;44930;52.878;6.168;2024-03-23T10:58:39;6.40;99.90
59148;DHT22;44930;52.878;6.168;2024-03-23T11:01:06;6.70;99.90
59148;DHT22;44930;52.878;6.168;2024-03-23T11:03:38;6.50;99.90
59148;DHT22;44930;52.878;6.168;2024-03-23T11:06:05;6.70;99.90
59148;DHT22;44930;52.878;6.168;2024-03-23T11:08:36;7.30;99.90
59148;DHT22;44930;52.878;6.168;2024-03-23T11:11:23;7.20;99.90
59148;DHT22;44930;52.878;6.168;2024-03-23T11:13:54;7.40;99.90
59148;DHT22;44930;52.878;6.168;2024-03-23T11:16:23;7.20;99.90
59148;DHT22;44930;52.878;6.168;2024-03-23T11:18:50;7.20;99.90
59148;DHT22;44930;52.878;6.168;2024-03-23T11:24:20;7.60;99.90
59148;DHT22;44930;52.878;6.168;2024-03-23T11:26:46;8.00;99.90
59148;DHT22;44930;52.878;6.168;2024-03-23T11:29:14;8.20;99.90
59148;DHT22;44930;52.878;6.168;2024-03-23T11:31:50;8.40;99.90
59148;DHT22;44930;52.878;6.168;2024-03-23T11:34:17;8.60;99.90
59148;DHT22;44930;52.878;6.168;2024-03-23T11:39:17;8.90;99.90
59148;DHT22;44930;52.878;6.168;2024-03-23T11:41:49;9.20;99.90
59148;DHT22;44930;52.878;6.168;2024-03-23T11:46:46;8.50;99.90
59148;DHT22;44930;52.878;6.168;2024-03-23T11:49:27;8.30;99.90
59148;DHT22;44930;52.878;6.168;2024-03-23T11:51:54;8.10;99.90
59148;DHT22;44930;52.878;6.168;2024-03-23T11:54:23;7.90;99.90
59148;DHT22;44930;52.878;6.168;2024-03-23T11:57:03;8.30;99.90
59148;DHT22;44930;52.878;6.168;2024-03-23T11:59:33;8.50;99.90
59148;DHT22;44930;52.878;6.168;2024-03-23T12:04:26;8.70;99.90
59148;DHT22;44930;52.878;6.168;2024-03-23T12:07:21;9.10;99.90
59148;DHT22;44930;52.878;6.168;2024-03-23T12:10:07;8.80;99.90
59148;DHT22;44930;52.878;6.168;2024-03-23T12:12:33;8.70;99.90
59148;DHT22;44930;52.878;6.168;2024-03-23T12:17:28;8.10;99.90
59148;DHT22;44930;52.878;6.168;2024-03-23T12:19:54;7.90;99.90
59148;DHT22;44930;52.878;6.168;2024-03-23T12:22:23;7.80;99.90
59148;DHT22;44930;52.878;6.168;2024-03-23T12:24:49;8.20;99.90
59148;DHT22;44930;52.878;6.168;2024-03-23T12:27:15;8.60;99.90
59148;DHT22;44930;52.878;6.168;2024-03-23T12:29:41;8.70;99.90
59148;DHT22;44930;52.878;6.168;2024-03-23T12:32:08;8.80;99.90
59148;DHT22;44930;52.878;6.168;2024-03-23T12:34:34;8.90;99.90
59148;DHT22;44930;52.878;6.168;2024-03-23T12:37:00;9.00;99.90
59148;DHT22;44930;52.878;6.168;2024-03-23T12:39:26;9.10;99.90
59148;DHT22;44930;52.878;6.168;2024-03-23T12:41:52;9.20;99.90
59148;DHT22;44930;52.878;6.168;2024-03-23T12:44:18;9.20;99.90
59148;DHT22;44930;52.878;6.168;2024-03-23T12:46:44;9.30;99.90
59148;DHT22;44930;52.878;6.168;2024-03-23T12:49:10;9.50;99.90
59148;DHT22;44930;52.878;6.168;2024-03-23T12:51:36;9.50;99.90
59148;DHT22;44930;52.878;6.168;2024-03-23T12:54:02;9.70;99.90
59148;DHT22;44930;52.878;6.168;2024-03-23T12:56:28;9.80;99.90
59148;DHT22;44930;52.878;6.168;2024-03-23T12:58:54;10.00;99.90
59148;DHT22;44930;52.878;6.168;2024-03-23T13:01:21;10.10;99.90
59148;DHT22;44930;52.878;6.168;2024-03-23T13:03:47;9.90;99.90
59148;DHT22;44930;52.878;6.168;2024-03-23T13:08:39;9.70;99.90
59148;DHT22;44930;52.878;6.168;2024-03-23T13:13:37;9.60;99.90
59148;DHT22;44930;52.878;6.168;2024-03-23T13:16:03;9.70;99.90
59148;DHT22;44930;52.878;6.168;2024-03-23T13:18:32;9.60;99.90
59148;DHT22;44930;52.878;6.168;2024-03-23T13:23:24;10.30;99.90
59148;DHT22;44930;52.878;6.168;2024-03-23T13:25:54;10.20;99.90
59148;DHT22;44930;52.878;6.168;2024-03-23T13:28:21;10.50;99.90
59148;DHT22;44930;52.878;6.168;2024-03-23T13:30:57;10.40;99.90
59148;DHT22;44930;52.878;6.168;2024-03-23T13:33:23;10.30;99.90
59148;DHT22;44930;52.878;6.168;2024-03-23T13:35:52;10.30;99.90
59148;DHT22;44930;52.878;6.168;2024-03-23T13:38:19;10.10;99.90
59148;DHT22;44930;52.878;6.168;2024-03-23T13:40:54;10.20;99.90
59148;DHT22;44930;52.878;6.168;2024-03-23T13:43:20;10.40;99.90
59148;DHT22;44930;52.878;6.168;2024-03-23T13:45:51;10.50;99.90
59148;DHT22;44930;52.878;6.168;2024-03-23T13:48:19;10.10;99.90
59148;DHT22;44930;52.878;6.168;2024-03-23T13:53:13;9.50;99.90
59148;DHT22;44930;52.878;6.168;2024-03-23T13:55:46;9.20;99.90
59148;DHT22;44930;52.878;6.168;2024-03-23T13:58:12;9.20;99.90
59148;DHT22;44930;52.878;6.168;2024-03-23T14:00:38;9.10;99.90
59148;DHT22;44930;52.878;6.168;2024-03-23T14:03:03;8.90;99.90
59148;DHT22;44930;52.878;6.168;2024-03-23T14:07:55;8.90;99.90
59148;DHT22;44930;52.878;6.168;2024-03-23T14:10:20;8.90;99.90
59148;DHT22;44930;52.878;6.168;2024-03-23T14:12:46;8.70;99.90
59148;DHT22;44930;52.878;6.168;2024-03-23T14:15:12;8.60;99.90
59148;DHT22;44930;52.878;6.168;2024-03-23T14:17:37;8.40;99.90
59148;DHT22;44930;52.878;6.168;2024-03-23T14:20:04;8.60;99.90
59148;DHT22;44930;52.878;6.168;2024-03-23T14:24:57;8.80;99.90
59148;DHT22;44930;52.878;6.168;2024-03-23T14:27:24;8.20;99.90
59148;DHT22;44930;52.878;6.168;2024-03-23T14:32:16;7.60;99.90
59148;DHT22;44930;52.878;6.168;2024-03-23T14:34:41;7.30;99.90
59148;DHT22;44930;52.878;6.168;2024-03-23T14:37:07;7.30;99.90
59148;DHT22;44930;52.878;6.168;2024-03-23T14:39:33;7.40;99.90
59148;DHT22;44930;52.878;6.168;2024-03-23T14:42:03;7.90;99.90
59148;DHT22;44930;52.878;6.168;2024-03-23T14:44:29;8.00;99.90
59148;DHT22;44930;52.878;6.168;2024-03-23T14:46:54;8.20;99.90
59148;DHT22;44930;52.878;6.168;2024-03-23T14:51:46;8.60;99.90
59148;DHT22;44930;52.878;6.168;2024-03-23T14:54:12;9.00;99.90
59148;DHT22;44930;52.878;6.168;2024-03-23T14:56:38;9.30;99.90
59148;DHT22;44930;52.878;6.168;2024-03-23T14:59:04;9.30;99.90
59148;DHT22;44930;52.878;6.168;2024-03-23T15:03:57;9.40;99.90
59148;DHT22;44930;52.878;6.168;2024-03-23T15:08:49;9.10;99.90
59148;DHT22;44930;52.878;6.168;2024-03-23T15:11:15;8.70;99.90
59148;DHT22;44930;52.878;6.168;2024-03-23T15:21:02;7.70;99.90
59148;DHT22;44930;52.878;6.168;2024-03-23T15:23:31;7.50;99.90
59148;DHT22;44930;52.878;6.168;2024-03-23T15:26:01;7.70;99.90
59148;DHT22;44930;52.878;6.168;2024-03-23T15:28:28;7.60;99.90
59148;DHT22;44930;52.878;6.168;2024-03-23T15:31:07;7.60;99.90
59148;DHT22;44930;52.878;6.168;2024-03-23T15:33:34;7.90;99.90
59148;DHT22;44930;52.878;6.168;2024-03-23T15:36:01;8.50;99.90
59148;DHT22;44930;52.878;6.168;2024-03-23T15:38:27;9.20;99.90
59148;DHT22;44930;52.878;6.168;2024-03-23T15:40:54;9.70;99.90
59148;DHT22;44930;52.878;6.168;2024-03-23T15:43:20;10.00;99.90
59148;DHT22;44930;52.878;6.168;2024-03-23T15:46:03;9.80;99.90
59148;DHT22;44930;52.878;6.168;2024-03-23T15:50:59;9.80;99.90
59148;DHT22;44930;52.878;6.168;2024-03-23T15:53:26;9.10;99.90
59148;DHT22;44930;52.878;6.168;2024-03-23T15:55:55;8.30;99.90
59148;DHT22;44930;52.878;6.168;2024-03-23T15:58:21;8.40;99.90
59148;DHT22;44930;52.878;6.168;2024-03-23T16:01:03;8.00;99.90
59148;DHT22;44930;52.878;6.168;2024-03-23T16:03:30;8.10;99.90
59148;DHT22;44930;52.878;6.168;2024-03-23T16:06:02;8.20;99.90
59148;DHT22;44930;52.878;6.168;2024-03-23T16:08:29;8.00;99.90
59148;DHT22;44930;52.878;6.168;2024-03-23T16:11:00;8.30;99.90
59148;DHT22;44930;52.878;6.168;2024-03-23T16:16:03;8.30;99.90
59148;DHT22;44930;52.878;6.168;2024-03-23T16:18:30;8.20;99.90
59148;DHT22;44930;52.878;6.168;2024-03-23T16:21:00;8.40;99.90
59148;DHT22;44930;52.878;6.168;2024-03-23T16:23:26;8.30;99.90
59148;DHT22;44930;52.878;6.168;2024-03-23T16:25:54;8.10;99.90
59148;DHT22;44930;52.878;6.168;2024-03-23T16:28:28;8.80;99.90
59148;DHT22;44930;52.878;6.168;2024-03-23T16:33:27;8.60;99.90
59148;DHT22;44930;52.878;6.168;2024-03-23T16:36:03;8.40;99.90
59148;DHT22;44930;52.878;6.168;2024-03-23T16:38:36;8.10;99.90
59148;DHT22;44930;52.878;6.168;2024-03-23T16:43:30;8.10;99.90
59148;DHT22;44930;52.878;6.168;2024-03-23T16:46:02;8.00;99.90
59148;DHT22;44930;52.878;6.168;2024-03-23T16:50:59;7.50;99.90
59148;DHT22;44930;52.878;6.168;2024-03-23T16:53:26;7.60;99.90
59148;DHT22;44930;52.878;6.168;2024-03-23T16:55:58;7.90;99.90
59148;DHT22;44930;52.878;6.168;2024-03-23T16:58:28;7.90;99.90
59148;DHT22;44930;52.878;6.168;2024-03-23T17:01:03;7.90;99.90
59148;DHT22;44930;52.878;6.168;2024-03-23T17:03:30;7.70;99.90
59148;DHT22;44930;52.878;6.168;2024-03-23T17:05:55;7.50;99.90
59148;DHT22;44930;52.878;6.168;2024-03-23T17:10:47;7.30;99.90
59148;DHT22;44930;52.878;6.168;2024-03-23T17:13:13;7.20;99.90
59148;DHT22;44930;52.878;6.168;2024-03-23T17:18:12;6.90;99.90
59148;DHT22;44930;52.878;6.168;2024-03-23T17:20:38;7.00;99.90
59148;DHT22;44930;52.878;6.168;2024-03-23T17:23:04;6.80;99.90
59148;DHT22;44930;52.878;6.168;2024-03-23T17:25:30;6.70;99.90
59148;DHT22;44930;52.878;6.168;2024-03-23T17:27:55;6.50;99.90
59148;DHT22;44930;52.878;6.168;2024-03-23T17:30:21;6.40;99.90
59148;DHT22;44930;52.878;6.168;2024-03-23T17:35:13;6.40;99.90
59148;DHT22;44930;52.878;6.168;2024-03-23T17:37:40;6.50;99.90
59148;DHT22;44930;52.878;6.168;2024-03-23T17:42:37;6.40;99.90
59148;DHT22;44930;52.878;6.168;2024-03-23T17:47:40;6.00;99.90
59148;DHT22;44930;52.878;6.168;2024-03-23T17:50:06;6.10;99.90
59148;DHT22;44930;52.878;6.168;2024-03-23T17:52:33;6.00;99.90
59148;DHT22;44930;52.878;6.168;2024-03-23T17:54:59;5.90;99.90
59148;DHT22;44930;52.878;6.168;2024-03-23T17:57:26;6.00;99.90
59148;DHT22;44930;52.878;6.168;2024-03-23T17:59:52;5.90;99.90
59148;DHT22;44930;52.878;6.168;2024-03-23T18:02:18;5.90;99.90
59148;DHT22;44930;52.878;6.168;2024-03-23T18:04:46;5.80;99.90
59148;DHT22;44930;52.878;6.168;2024-03-23T18:07:13;6.00;99.90
59148;DHT22;44930;52.878;6.168;2024-03-23T18:09:38;5.90;99.90
59148;DHT22;44930;52.878;6.168;2024-03-23T18:12:05;5.90;99.90
59148;DHT22;44930;52.878;6.168;2024-03-23T18:16:57;5.90;99.90
59148;DHT22;44930;52.878;6.168;2024-03-23T18:19:22;5.60;99.90
59148;DHT22;44930;52.878;6.168;2024-03-23T18:21:48;5.90;99.90
59148;DHT22;44930;52.878;6.168;2024-03-23T18:24:14;6.00;99.90
59148;DHT22;44930;52.878;6.168;2024-03-23T18:26:40;5.90;99.90
59148;DHT22;44930;52.878;6.168;2024-03-23T18:29:05;6.10;99.90
59148;DHT22;44930;52.878;6.168;2024-03-23T18:31:32;6.40;99.90
59148;DHT22;44930;52.878;6.168;2024-03-23T18:33:57;6.50;99.90
59148;DHT22;44930;52.878;6.168;2024-03-23T18:36:24;6.30;99.90
59148;DHT22;44930;52.878;6.168;2024-03-23T18:38:49;5.90;99.90
59148;DHT22;44930;52.878;6.168;2024-03-23T18:41:16;5.90;99.90
59148;DHT22;44930;52.878;6.168;2024-03-23T18:43:45;5.90;99.90
59148;DHT22;44930;52.878;6.168;2024-03-23T18:46:10;5.80;99.90
59148;DHT22;44930;52.878;6.168;2024-03-23T18:48:36;5.70;99.90